sensor_id;sensor_type;location;lat;lon;timestamp;temperature;humidity
68977;SHT31;56029;52.568;13.588;2023-08-31T00:00:54;15.41;92.82
68977;SHT31;56029;52.568;13.588;2023-08-31T00:03:30;15.44;92.62
68977;SHT31;56029;52.568;13.588;2023-08-31T00:05:56;15.48;92.60
68977;SHT31;56029;52.568;13.588;2023-08-31T00:08:21;15.47;92.55
68977;SHT31;56029;52.568;13.588;2023-08-31T00:10:55;15.51;92.40
68977;SHT31;56029;52.568;13.588;2023-08-31T00:13:21;15.51;92.40
68977;SHT31;56029;52.568;13.588;2023-08-31T00:15:46;15.55;92.28
68977;SHT31;56029;52.568;13.588;2023-08-31T00:18:12;15.55;92.27
68977;SHT31;56029;52.568;13.588;2023-08-31T00:20:37;15.52;92.28
68977;SHT31;56029;52.568;13.588;2023-08-31T00:23:03;15.52;92.34
68977;SHT31;56029;52.568;13.588;2023-08-31T00:25:28;15.52;92.35
68977;SHT31;56029;52.568;13.588;2023-08-31T00:27:54;15.51;92.39
68977;SHT31;56029;52.568;13.588;2023-08-31T00:30:20;15.54;92.16
68977;SHT31;56029;52.568;13.588;2023-08-31T00:32:45;15.52;92.34
68977;SHT31;56029;52.568;13.588;2023-08-31T00:35:11;15.52;92.26
68977;SHT31;56029;52.568;13.588;2023-08-31T00:37:36;15.50;92.26
68977;SHT31;56029;52.568;13.588;2023-08-31T00:40:02;15.55;92.10
68977;SHT31;56029;52.568;13.588;2023-08-31T00:42:27;15.52;92.03
68977;SHT31;56029;52.568;13.588;2023-08-31T00:44:53;15.50;92.28
68977;SHT31;56029;52.568;13.588;2023-08-31T00:47:19;15.54;92.10
68977;SHT31;56029;52.568;13.588;2023-08-31T00:49:44;15.51;92.10
68977;SHT31;56029;52.568;13.588;2023-08-31T00:52:10;15.54;92.01
68977;SHT31;56029;52.568;13.588;2023-08-31T00:54:36;15.52;92.15
68977;SHT31;56029;52.568;13.588;2023-08-31T00:57:01;15.52;92.22
68977;SHT31;56029;52.568;13.588;2023-08-31T00:59:27;15.50;92.17
68977;SHT31;56029;52.568;13.588;2023-08-31T01:02:17;15.51;92.07
68977;SHT31;56029;52.568;13.588;2023-08-31T01:05:03;15.50;92.33
68977;SHT31;56029;52.568;13.588;2023-08-31T01:07:52;15.45;92.61
68977;SHT31;56029;52.568;13.588;2023-08-31T01:10:43;15.48;92.34
68977;SHT31;56029;52.568;13.588;2023-08-31T01:13:14;15.51;92.36
68977;SHT31;56029;52.568;13.588;2023-08-31T01:15:46;15.50;92.47
68977;SHT31;56029;52.568;13.588;2023-08-31T01:18:15;15.42;92.77
68977;SHT31;56029;52.568;13.588;2023-08-31T01:23:56;15.31;93.21
68977;SHT31;56029;52.568;13.588;2023-08-31T01:26:22;15.34;93.06
68977;SHT31;56029;52.568;13.588;2023-08-31T01:28:48;15.34;93.02
68977;SHT31;56029;52.568;13.588;2023-08-31T01:31:15;15.30;93.00
68977;SHT31;56029;52.568;13.588;2023-08-31T01:33:40;15.28;93.08
68977;SHT31;56029;52.568;13.588;2023-08-31T01:36:14;15.20;93.45
68977;SHT31;56029;52.568;13.588;2023-08-31T01:38:42;15.24;93.24
68977;SHT31;56029;52.568;13.588;2023-08-31T01:41:14;15.23;93.18
68977;SHT31;56029;52.568;13.588;2023-08-31T01:43:42;15.37;92.48
68977;SHT31;56029;52.568;13.588;2023-08-31T01:46:09;15.41;92.39
68977;SHT31;56029;52.568;13.588;2023-08-31T01:48:41;15.50;92.22
68977;SHT31;56029;52.568;13.588;2023-08-31T01:51:07;15.51;92.31
68977;SHT31;56029;52.568;13.588;2023-08-31T01:53:33;15.58;92.17
68977;SHT31;56029;52.568;13.588;2023-08-31T01:55:58;15.61;91.83
68977;SHT31;56029;52.568;13.588;2023-08-31T01:58:24;15.68;91.73
68977;SHT31;56029;52.568;13.588;2023-08-31T02:00:49;15.59;91.71
68977;SHT31;56029;52.568;13.588;2023-08-31T02:03:15;15.57;91.71
68977;SHT31;56029;52.568;13.588;2023-08-31T02:05:40;15.62;91.85
68977;SHT31;56029;52.568;13.588;2023-08-31T02:08:06;15.55;92.23
68977;SHT31;56029;52.568;13.588;2023-08-31T02:10:32;15.57;91.99
68977;SHT31;56029;52.568;13.588;2023-08-31T02:12:57;15.55;92.18
68977;SHT31;56029;52.568;13.588;2023-08-31T02:15:23;15.51;92.59
68977;SHT31;56029;52.568;13.588;2023-08-31T02:17:48;15.44;92.35
68977;SHT31;56029;52.568;13.588;2023-08-31T02:20:14;15.47;92.62
68977;SHT31;56029;52.568;13.588;2023-08-31T02:22:39;15.37;93.18
68977;SHT31;56029;52.568;13.588;2023-08-31T02:25:05;15.38;92.39
68977;SHT31;56029;52.568;13.588;2023-08-31T02:27:31;15.26;92.87
68977;SHT31;56029;52.568;13.588;2023-08-31T02:29:57;15.24;93.12
68977;SHT31;56029;52.568;13.588;2023-08-31T02:32:22;15.26;93.14
68977;SHT31;56029;52.568;13.588;2023-08-31T02:34:48;15.13;92.31
68977;SHT31;56029;52.568;13.588;2023-08-31T02:37:13;15.11;91.99
68977;SHT31;56029;52.568;13.588;2023-08-31T02:39:39;15.08;92.00
68977;SHT31;56029;52.568;13.588;2023-08-31T02:42:04;15.03;92.09
68977;SHT31;56029;52.568;13.588;2023-08-31T02:44:30;14.97;91.98
68977;SHT31;56029;52.568;13.588;2023-08-31T02:46:55;14.94;92.59
68977;SHT31;56029;52.568;13.588;2023-08-31T02:49:21;14.93;92.19
68977;SHT31;56029;52.568;13.588;2023-08-31T02:51:46;14.87;91.99
68977;SHT31;56029;52.568;13.588;2023-08-31T02:54:12;14.83;91.97
68977;SHT31;56029;52.568;13.588;2023-08-31T02:56:37;14.83;91.55
68977;SHT31;56029;52.568;13.588;2023-08-31T02:59:03;14.76;91.25
68977;SHT31;56029;52.568;13.588;2023-08-31T03:01:28;14.79;91.27
68977;SHT31;56029;52.568;13.588;2023-08-31T03:03:54;14.68;90.74
68977;SHT31;56029;52.568;13.588;2023-08-31T03:06:19;14.73;91.13
68977;SHT31;56029;52.568;13.588;2023-08-31T03:08:45;14.61;90.96
68977;SHT31;56029;52.568;13.588;2023-08-31T03:11:11;14.61;91.47
68977;SHT31;56029;52.568;13.588;2023-08-31T03:13:37;14.51;91.56
68977;SHT31;56029;52.568;13.588;2023-08-31T03:16:02;14.45;91.77
68977;SHT31;56029;52.568;13.588;2023-08-31T03:18:28;14.52;92.12
68977;SHT31;56029;52.568;13.588;2023-08-31T03:20:54;14.54;92.45
68977;SHT31;56029;52.568;13.588;2023-08-31T03:23:20;14.48;92.47
68977;SHT31;56029;52.568;13.588;2023-08-31T03:25:45;14.55;92.23
68977;SHT31;56029;52.568;13.588;2023-08-31T03:28:11;14.48;92.60
68977;SHT31;56029;52.568;13.588;2023-08-31T03:30:37;14.45;92.85
68977;SHT31;56029;52.568;13.588;2023-08-31T03:33:03;14.45;92.90
68977;SHT31;56029;52.568;13.588;2023-08-31T03:35:28;14.48;92.81
68977;SHT31;56029;52.568;13.588;2023-08-31T03:37:55;14.42;92.79
68977;SHT31;56029;52.568;13.588;2023-08-31T03:40:21;14.39;93.32
68977;SHT31;56029;52.568;13.588;2023-08-31T03:42:46;14.35;93.25
68977;SHT31;56029;52.568;13.588;2023-08-31T03:45:12;14.32;93.20
68977;SHT31;56029;52.568;13.588;2023-08-31T03:47:38;14.36;93.35
68977;SHT31;56029;52.568;13.588;2023-08-31T03:50:04;14.32;93.25
68977;SHT31;56029;52.568;13.588;2023-08-31T03:52:30;14.32;93.73
68977;SHT31;56029;52.568;13.588;2023-08-31T03:54:55;14.31;93.25
68977;SHT31;56029;52.568;13.588;2023-08-31T03:57:21;14.28;93.61
68977;SHT31;56029;52.568;13.588;2023-08-31T03:59:46;14.29;93.11
68977;SHT31;56029;52.568;13.588;2023-08-31T04:02:12;14.34;93.68
68977;SHT31;56029;52.568;13.588;2023-08-31T04:04:37;14.31;93.09
68977;SHT31;56029;52.568;13.588;2023-08-31T04:07:03;14.35;93.20
68977;SHT31;56029;52.568;13.588;2023-08-31T04:09:28;14.41;93.02
68977;SHT31;56029;52.568;13.588;2023-08-31T04:11:54;14.36;93.53
68977;SHT31;56029;52.568;13.588;2023-08-31T04:14:19;14.41;93.08
68977;SHT31;56029;52.568;13.588;2023-08-31T04:16:45;14.38;93.02
68977;SHT31;56029;52.568;13.588;2023-08-31T04:19:10;14.41;93.16
68977;SHT31;56029;52.568;13.588;2023-08-31T04:21:36;14.41;92.82
68977;SHT31;56029;52.568;13.588;2023-08-31T04:24:01;14.46;93.31
68977;SHT31;56029;52.568;13.588;2023-08-31T04:26:27;14.45;93.05
68977;SHT31;56029;52.568;13.588;2023-08-31T04:28:53;14.46;92.90
68977;SHT31;56029;52.568;13.588;2023-08-31T04:31:18;14.45;92.96
68977;SHT31;56029;52.568;13.588;2023-08-31T04:33:44;14.46;93.17
68977;SHT31;56029;52.568;13.588;2023-08-31T04:36:10;14.48;93.28
68977;SHT31;56029;52.568;13.588;2023-08-31T04:38:37;14.51;93.71
68977;SHT31;56029;52.568;13.588;2023-08-31T04:41:03;14.49;94.00
68977;SHT31;56029;52.568;13.588;2023-08-31T04:43:29;14.42;94.22
68977;SHT31;56029;52.568;13.588;2023-08-31T04:45:54;14.39;94.23
68977;SHT31;56029;52.568;13.588;2023-08-31T04:48:20;14.41;94.70
68977;SHT31;56029;52.568;13.588;2023-08-31T04:50:46;14.42;94.24
68977;SHT31;56029;52.568;13.588;2023-08-31T04:53:12;14.41;94.55
68977;SHT31;56029;52.568;13.588;2023-08-31T04:55:37;14.41;94.50
68977;SHT31;56029;52.568;13.588;2023-08-31T04:58:03;14.49;94.79
68977;SHT31;56029;52.568;13.588;2023-08-31T05:00:30;14.49;94.50
68977;SHT31;56029;52.568;13.588;2023-08-31T05:02:56;14.55;94.40
68977;SHT31;56029;52.568;13.588;2023-08-31T05:05:21;14.52;94.43
68977;SHT31;56029;52.568;13.588;2023-08-31T05:07:47;14.62;94.40
68977;SHT31;56029;52.568;13.588;2023-08-31T05:10:13;14.56;94.81
68977;SHT31;56029;52.568;13.588;2023-08-31T05:12:38;14.56;94.58
68977;SHT31;56029;52.568;13.588;2023-08-31T05:15:04;14.56;94.94
68977;SHT31;56029;52.568;13.588;2023-08-31T05:17:30;14.66;94.63
68977;SHT31;56029;52.568;13.588;2023-08-31T05:19:55;14.66;95.00
68977;SHT31;56029;52.568;13.588;2023-08-31T05:22:21;14.73;94.77
68977;SHT31;56029;52.568;13.588;2023-08-31T05:24:46;14.73;94.89
68977;SHT31;56029;52.568;13.588;2023-08-31T05:27:12;14.84;94.98
68977;SHT31;56029;52.568;13.588;2023-08-31T05:29:37;14.96;94.92
68977;SHT31;56029;52.568;13.588;2023-08-31T05:32:03;14.99;94.95
68977;SHT31;56029;52.568;13.588;2023-08-31T05:34:29;15.02;94.18
68977;SHT31;56029;52.568;13.588;2023-08-31T05:36:54;15.08;94.40
68977;SHT31;56029;52.568;13.588;2023-08-31T05:39:20;15.16;94.31
68977;SHT31;56029;52.568;13.588;2023-08-31T05:41:45;15.02;93.89
68977;SHT31;56029;52.568;13.588;2023-08-31T05:44:11;15.04;93.88
68977;SHT31;56029;52.568;13.588;2023-08-31T05:46:36;15.07;94.43
68977;SHT31;56029;52.568;13.588;2023-08-31T05:49:02;15.08;93.92
68977;SHT31;56029;52.568;13.588;2023-08-31T05:51:27;15.10;93.93
68977;SHT31;56029;52.568;13.588;2023-08-31T05:53:53;15.04;93.94
68977;SHT31;56029;52.568;13.588;2023-08-31T05:56:19;15.10;94.12
68977;SHT31;56029;52.568;13.588;2023-08-31T05:58:45;15.07;94.16
68977;SHT31;56029;52.568;13.588;2023-08-31T06:01:10;14.97;93.82
68977;SHT31;56029;52.568;13.588;2023-08-31T06:03:36;15.00;93.92
68977;SHT31;56029;52.568;13.588;2023-08-31T06:06:02;14.99;94.00
68977;SHT31;56029;52.568;13.588;2023-08-31T06:08:27;15.03;94.32
68977;SHT31;56029;52.568;13.588;2023-08-31T06:10:53;15.11;93.99
68977;SHT31;56029;52.568;13.588;2023-08-31T06:13:19;15.10;93.64
68977;SHT31;56029;52.568;13.588;2023-08-31T06:15:44;15.06;93.28
68977;SHT31;56029;52.568;13.588;2023-08-31T06:18:10;15.17;92.76
68977;SHT31;56029;52.568;13.588;2023-08-31T06:20:36;15.24;92.36
68977;SHT31;56029;52.568;13.588;2023-08-31T06:23:02;15.33;92.58
68977;SHT31;56029;52.568;13.588;2023-08-31T06:25:27;15.31;92.70
68977;SHT31;56029;52.568;13.588;2023-08-31T06:27:53;15.33;91.83
68977;SHT31;56029;52.568;13.588;2023-08-31T06:30:18;15.42;91.63
68977;SHT31;56029;52.568;13.588;2023-08-31T06:32:47;15.34;91.78
68977;SHT31;56029;52.568;13.588;2023-08-31T06:35:13;15.47;92.33
68977;SHT31;56029;52.568;13.588;2023-08-31T06:37:40;15.45;90.59
68977;SHT31;56029;52.568;13.588;2023-08-31T06:40:06;15.62;91.49
68977;SHT31;56029;52.568;13.588;2023-08-31T06:42:32;15.68;91.18
68977;SHT31;56029;52.568;13.588;2023-08-31T06:44:57;15.59;91.08
68977;SHT31;56029;52.568;13.588;2023-08-31T06:47:23;15.59;91.09
68977;SHT31;56029;52.568;13.588;2023-08-31T06:49:49;15.50;91.19
68977;SHT31;56029;52.568;13.588;2023-08-31T06:52:15;15.47;90.60
68977;SHT31;56029;52.568;13.588;2023-08-31T06:54:40;15.61;91.05
68977;SHT31;56029;52.568;13.588;2023-08-31T06:57:06;15.55;90.73
68977;SHT31;56029;52.568;13.588;2023-08-31T06:59:31;15.63;90.52
68977;SHT31;56029;52.568;13.588;2023-08-31T07:01:57;15.61;90.54
68977;SHT31;56029;52.568;13.588;2023-08-31T07:04:22;15.61;90.57
68977;SHT31;56029;52.568;13.588;2023-08-31T07:06:48;15.73;89.53
68977;SHT31;56029;52.568;13.588;2023-08-31T07:09:13;15.78;89.39
68977;SHT31;56029;52.568;13.588;2023-08-31T07:11:39;15.86;89.56
68977;SHT31;56029;52.568;13.588;2023-08-31T07:14:04;16.09;89.86
68977;SHT31;56029;52.568;13.588;2023-08-31T07:16:30;15.98;89.08
68977;SHT31;56029;52.568;13.588;2023-08-31T07:18:55;16.02;88.58
68977;SHT31;56029;52.568;13.588;2023-08-31T07:21:21;16.05;89.01
68977;SHT31;56029;52.568;13.588;2023-08-31T07:23:46;15.95;88.64
68977;SHT31;56029;52.568;13.588;2023-08-31T07:26:12;15.92;87.54
68977;SHT31;56029;52.568;13.588;2023-08-31T07:28:37;15.96;88.72
68977;SHT31;56029;52.568;13.588;2023-08-31T07:31:06;15.86;88.41
68977;SHT31;56029;52.568;13.588;2023-08-31T07:33:33;15.92;88.34
68977;SHT31;56029;52.568;13.588;2023-08-31T07:35:59;15.99;89.01
68977;SHT31;56029;52.568;13.588;2023-08-31T07:38:25;15.98;88.71
68977;SHT31;56029;52.568;13.588;2023-08-31T07:40:50;16.02;87.35
68977;SHT31;56029;52.568;13.588;2023-08-31T07:43:16;16.05;87.51
68977;SHT31;56029;52.568;13.588;2023-08-31T07:45:41;16.08;87.17
68977;SHT31;56029;52.568;13.588;2023-08-31T07:48:07;16.16;86.66
68977;SHT31;56029;52.568;13.588;2023-08-31T07:50:33;16.14;85.84
68977;SHT31;56029;52.568;13.588;2023-08-31T07:52:58;16.26;86.30
68977;SHT31;56029;52.568;13.588;2023-08-31T07:55:24;16.17;85.66
68977;SHT31;56029;52.568;13.588;2023-08-31T07:57:49;16.21;85.94
68977;SHT31;56029;52.568;13.588;2023-08-31T08:00:15;16.20;86.06
68977;SHT31;56029;52.568;13.588;2023-08-31T08:02:40;16.09;85.81
68977;SHT31;56029;52.568;13.588;2023-08-31T08:05:06;16.27;85.57
68977;SHT31;56029;52.568;13.588;2023-08-31T08:07:32;16.41;84.56
68977;SHT31;56029;52.568;13.588;2023-08-31T08:09:58;16.47;84.82
68977;SHT31;56029;52.568;13.588;2023-08-31T08:12:24;16.43;84.14
68977;SHT31;56029;52.568;13.588;2023-08-31T08:14:50;16.50;83.12
68977;SHT31;56029;52.568;13.588;2023-08-31T08:17:15;16.68;84.44
68977;SHT31;56029;52.568;13.588;2023-08-31T08:19:41;16.63;84.32
68977;SHT31;56029;52.568;13.588;2023-08-31T08:22:06;16.77;84.12
68977;SHT31;56029;52.568;13.588;2023-08-31T08:24:32;16.81;83.38
68977;SHT31;56029;52.568;13.588;2023-08-31T08:26:57;16.72;81.27
68977;SHT31;56029;52.568;13.588;2023-08-31T08:29:23;16.81;82.15
68977;SHT31;56029;52.568;13.588;2023-08-31T08:31:48;16.72;81.69
68977;SHT31;56029;52.568;13.588;2023-08-31T08:34:14;16.67;81.45
68977;SHT31;56029;52.568;13.588;2023-08-31T08:36:39;16.54;81.65
68977;SHT31;56029;52.568;13.588;2023-08-31T08:39:05;16.53;81.49
68977;SHT31;56029;52.568;13.588;2023-08-31T08:41:32;16.84;80.81
68977;SHT31;56029;52.568;13.588;2023-08-31T08:44:02;17.11;80.63
68977;SHT31;56029;52.568;13.588;2023-08-31T08:46:28;17.30;80.13
68977;SHT31;56029;52.568;13.588;2023-08-31T08:48:54;17.30;79.60
68977;SHT31;56029;52.568;13.588;2023-08-31T08:51:20;17.60;78.90
68977;SHT31;56029;52.568;13.588;2023-08-31T08:53:46;17.73;78.08
68977;SHT31;56029;52.568;13.588;2023-08-31T08:56:12;17.73;78.77
68977;SHT31;56029;52.568;13.588;2023-08-31T08:58:38;17.46;78.01
68977;SHT31;56029;52.568;13.588;2023-08-31T09:01:06;17.26;77.86
68977;SHT31;56029;52.568;13.588;2023-08-31T09:03:34;17.11;79.38
68977;SHT31;56029;52.568;13.588;2023-08-31T09:06:00;17.01;78.34
68977;SHT31;56029;52.568;13.588;2023-08-31T09:08:26;17.01;79.46
68977;SHT31;56029;52.568;13.588;2023-08-31T09:10:52;17.09;78.86
68977;SHT31;56029;52.568;13.588;2023-08-31T09:13:17;17.39;78.90
68977;SHT31;56029;52.568;13.588;2023-08-31T09:15:47;17.36;76.67
68977;SHT31;56029;52.568;13.588;2023-08-31T09:20:46;17.29;74.48
68977;SHT31;56029;52.568;13.588;2023-08-31T09:23:13;17.12;75.24
68977;SHT31;56029;52.568;13.588;2023-08-31T09:25:43;17.20;75.84
68977;SHT31;56029;52.568;13.588;2023-08-31T09:28:09;17.45;75.87
68977;SHT31;56029;52.568;13.588;2023-08-31T09:30:35;17.69;76.01
68977;SHT31;56029;52.568;13.588;2023-08-31T09:33:03;17.66;75.41
68977;SHT31;56029;52.568;13.588;2023-08-31T09:35:29;17.74;75.10
68977;SHT31;56029;52.568;13.588;2023-08-31T09:37:55;17.69;74.92
68977;SHT31;56029;52.568;13.588;2023-08-31T09:40:21;17.78;74.95
68977;SHT31;56029;52.568;13.588;2023-08-31T09:42:50;18.15;74.19
68977;SHT31;56029;52.568;13.588;2023-08-31T09:45:18;18.44;72.89
68977;SHT31;56029;52.568;13.588;2023-08-31T09:47:44;18.44;72.43
68977;SHT31;56029;52.568;13.588;2023-08-31T09:50:10;18.42;72.99
68977;SHT31;56029;52.568;13.588;2023-08-31T09:52:37;18.09;72.82
68977;SHT31;56029;52.568;13.588;2023-08-31T09:55:03;17.98;74.43
68977;SHT31;56029;52.568;13.588;2023-08-31T09:57:30;17.80;74.59
68977;SHT31;56029;52.568;13.588;2023-08-31T09:59:58;17.74;75.36
68977;SHT31;56029;52.568;13.588;2023-08-31T10:02:24;17.60;74.39
68977;SHT31;56029;52.568;13.588;2023-08-31T10:04:51;17.71;74.33
68977;SHT31;56029;52.568;13.588;2023-08-31T10:07:16;17.93;73.79
68977;SHT31;56029;52.568;13.588;2023-08-31T10:09:42;17.87;72.89
68977;SHT31;56029;52.568;13.588;2023-08-31T10:12:08;17.90;73.60
68977;SHT31;56029;52.568;13.588;2023-08-31T10:14:34;17.97;73.17
68977;SHT31;56029;52.568;13.588;2023-08-31T10:17:00;17.90;73.88
68977;SHT31;56029;52.568;13.588;2023-08-31T10:19:26;18.00;72.35
68977;SHT31;56029;52.568;13.588;2023-08-31T10:21:51;18.07;71.85
68977;SHT31;56029;52.568;13.588;2023-08-31T10:24:17;18.34;72.57
68977;SHT31;56029;52.568;13.588;2023-08-31T10:26:42;18.67;72.66
68977;SHT31;56029;52.568;13.588;2023-08-31T10:29:25;18.87;71.30
68977;SHT31;56029;52.568;13.588;2023-08-31T10:31:52;19.10;71.45
68977;SHT31;56029;52.568;13.588;2023-08-31T10:34:34;18.97;69.16
68977;SHT31;56029;52.568;13.588;2023-08-31T10:36:59;18.76;67.94
68977;SHT31;56029;52.568;13.588;2023-08-31T10:39:37;18.73;70.10
68977;SHT31;56029;52.568;13.588;2023-08-31T10:42:03;18.82;70.50
68977;SHT31;56029;52.568;13.588;2023-08-31T10:44:30;19.06;69.38
68977;SHT31;56029;52.568;13.588;2023-08-31T10:47:00;19.02;68.47
68977;SHT31;56029;52.568;13.588;2023-08-31T10:49:25;18.70;68.33
68977;SHT31;56029;52.568;13.588;2023-08-31T10:51:55;18.53;69.70
68977;SHT31;56029;52.568;13.588;2023-08-31T10:54:23;17.73;68.18
68977;SHT31;56029;52.568;13.588;2023-08-31T10:57:02;16.84;73.00
68977;SHT31;56029;52.568;13.588;2023-08-31T10:59:45;16.19;79.58
68977;SHT31;56029;52.568;13.588;2023-08-31T11:02:27;15.61;80.43
68977;SHT31;56029;52.568;13.588;2023-08-31T11:05:06;15.52;83.16
68977;SHT31;56029;52.568;13.588;2023-08-31T11:07:33;15.58;84.19
68977;SHT31;56029;52.568;13.588;2023-08-31T11:10:21;15.73;83.16
68977;SHT31;56029;52.568;13.588;2023-08-31T11:12:49;15.95;84.56
68977;SHT31;56029;52.568;13.588;2023-08-31T11:15:17;16.13;83.19
68977;SHT31;56029;52.568;13.588;2023-08-31T11:17:43;16.33;82.96
68977;SHT31;56029;52.568;13.588;2023-08-31T11:20:14;16.53;82.28
68977;SHT31;56029;52.568;13.588;2023-08-31T11:22:41;16.64;83.51
68977;SHT31;56029;52.568;13.588;2023-08-31T11:25:09;16.87;82.16
68977;SHT31;56029;52.568;13.588;2023-08-31T11:27:34;17.04;83.45
68977;SHT31;56029;52.568;13.588;2023-08-31T11:30:00;17.16;82.32
68977;SHT31;56029;52.568;13.588;2023-08-31T11:32:25;17.42;81.71
68977;SHT31;56029;52.568;13.588;2023-08-31T11:34:51;17.49;80.84
68977;SHT31;56029;52.568;13.588;2023-08-31T11:37:17;17.63;80.02
68977;SHT31;56029;52.568;13.588;2023-08-31T11:39:49;17.74;81.32
68977;SHT31;56029;52.568;13.588;2023-08-31T11:42:16;17.78;80.92
68977;SHT31;56029;52.568;13.588;2023-08-31T11:44:42;18.02;83.91
68977;SHT31;56029;52.568;13.588;2023-08-31T11:47:07;18.44;81.58
68977;SHT31;56029;52.568;13.588;2023-08-31T11:49:33;18.57;77.86
68977;SHT31;56029;52.568;13.588;2023-08-31T11:51:59;18.89;79.91
68977;SHT31;56029;52.568;13.588;2023-08-31T11:54:25;18.65;76.58
68977;SHT31;56029;52.568;13.588;2023-08-31T11:56:51;18.84;74.47
68977;SHT31;56029;52.568;13.588;2023-08-31T11:59:18;18.56;74.64
68977;SHT31;56029;52.568;13.588;2023-08-31T12:01:46;18.69;74.29
68977;SHT31;56029;52.568;13.588;2023-08-31T12:04:16;18.79;73.47
68977;SHT31;56029;52.568;13.588;2023-08-31T12:06:46;18.52;73.83
68977;SHT31;56029;52.568;13.588;2023-08-31T12:09:12;18.36;74.18
68977;SHT31;56029;52.568;13.588;2023-08-31T12:11:37;18.15;72.92
68977;SHT31;56029;52.568;13.588;2023-08-31T12:14:17;18.07;74.54
68977;SHT31;56029;52.568;13.588;2023-08-31T12:16:43;17.90;75.36
68977;SHT31;56029;52.568;13.588;2023-08-31T12:19:09;17.84;73.98
68977;SHT31;56029;52.568;13.588;2023-08-31T12:21:35;17.69;76.34
68977;SHT31;56029;52.568;13.588;2023-08-31T12:24:00;17.53;76.41
68977;SHT31;56029;52.568;13.588;2023-08-31T12:26:26;17.54;78.81
68977;SHT31;56029;52.568;13.588;2023-08-31T12:28:52;17.63;78.15
68977;SHT31;56029;52.568;13.588;2023-08-31T12:31:18;17.76;77.33
68977;SHT31;56029;52.568;13.588;2023-08-31T12:33:46;17.94;75.82
68977;SHT31;56029;52.568;13.588;2023-08-31T12:36:12;17.97;76.38
68977;SHT31;56029;52.568;13.588;2023-08-31T12:38:37;18.22;76.89
68977;SHT31;56029;52.568;13.588;2023-08-31T12:41:03;18.48;76.60
68977;SHT31;56029;52.568;13.588;2023-08-31T12:43:29;18.57;76.76
68977;SHT31;56029;52.568;13.588;2023-08-31T12:45:55;18.84;76.78
68977;SHT31;56029;52.568;13.588;2023-08-31T12:48:21;18.92;73.61
68977;SHT31;56029;52.568;13.588;2023-08-31T12:50:49;19.08;71.38
68977;SHT31;56029;52.568;13.588;2023-08-31T12:53:15;19.10;71.06
68977;SHT31;56029;52.568;13.588;2023-08-31T12:55:41;19.03;70.18
68977;SHT31;56029;52.568;13.588;2023-08-31T12:58:07;19.00;71.34
68977;SHT31;56029;52.568;13.588;2023-08-31T13:00:32;19.00;72.64
68977;SHT31;56029;52.568;13.588;2023-08-31T13:02:58;19.07;72.10
68977;SHT31;56029;52.568;13.588;2023-08-31T13:05:26;19.14;72.22
68977;SHT31;56029;52.568;13.588;2023-08-31T13:07:52;19.10;71.13
68977;SHT31;56029;52.568;13.588;2023-08-31T13:10:18;19.20;71.88
68977;SHT31;56029;52.568;13.588;2023-08-31T13:12:43;19.27;71.21
68977;SHT31;56029;52.568;13.588;2023-08-31T13:15:09;19.47;71.74
68977;SHT31;56029;52.568;13.588;2023-08-31T13:17:34;19.58;71.59
68977;SHT31;56029;52.568;13.588;2023-08-31T13:20:00;19.63;72.74
68977;SHT31;56029;52.568;13.588;2023-08-31T13:22:28;19.63;72.22
68977;SHT31;56029;52.568;13.588;2023-08-31T13:24:53;19.59;70.54
68977;SHT31;56029;52.568;13.588;2023-08-31T13:27:19;19.55;70.43
68977;SHT31;56029;52.568;13.588;2023-08-31T13:29:44;19.45;72.85
68977;SHT31;56029;52.568;13.588;2023-08-31T13:32:10;19.68;71.12
68977;SHT31;56029;52.568;13.588;2023-08-31T13:34:36;19.61;69.09
68977;SHT31;56029;52.568;13.588;2023-08-31T13:37:02;19.42;68.30
68977;SHT31;56029;52.568;13.588;2023-08-31T13:39:28;19.52;69.57
68977;SHT31;56029;52.568;13.588;2023-08-31T13:41:53;19.36;68.27
68977;SHT31;56029;52.568;13.588;2023-08-31T13:44:21;19.47;69.79
68977;SHT31;56029;52.568;13.588;2023-08-31T13:46:47;19.32;68.42
68977;SHT31;56029;52.568;13.588;2023-08-31T13:49:13;19.31;68.58
68977;SHT31;56029;52.568;13.588;2023-08-31T13:51:39;19.38;70.29
68977;SHT31;56029;52.568;13.588;2023-08-31T13:54:05;19.38;70.53
68977;SHT31;56029;52.568;13.588;2023-08-31T13:56:30;19.62;70.60
68977;SHT31;56029;52.568;13.588;2023-08-31T13:58:56;19.66;70.91
68977;SHT31;56029;52.568;13.588;2023-08-31T14:01:21;19.72;70.10
68977;SHT31;56029;52.568;13.588;2023-08-31T14:03:47;19.86;69.03
68977;SHT31;56029;52.568;13.588;2023-08-31T14:06:13;19.83;69.32
68977;SHT31;56029;52.568;13.588;2023-08-31T14:08:39;19.76;69.70
68977;SHT31;56029;52.568;13.588;2023-08-31T14:11:04;19.72;69.71
68977;SHT31;56029;52.568;13.588;2023-08-31T14:13:30;19.72;69.77
68977;SHT31;56029;52.568;13.588;2023-08-31T14:15:55;19.47;70.14
68977;SHT31;56029;52.568;13.588;2023-08-31T14:18:24;19.10;69.03
68977;SHT31;56029;52.568;13.588;2023-08-31T14:20:49;18.80;68.89
68977;SHT31;56029;52.568;13.588;2023-08-31T14:23:18;18.53;70.87
68977;SHT31;56029;52.568;13.588;2023-08-31T14:25:49;18.70;70.50
68977;SHT31;56029;52.568;13.588;2023-08-31T14:28:15;18.62;70.41
68977;SHT31;56029;52.568;13.588;2023-08-31T14:30:40;18.80;69.88
68977;SHT31;56029;52.568;13.588;2023-08-31T14:33:06;18.93;68.63
68977;SHT31;56029;52.568;13.588;2023-08-31T14:35:32;18.90;68.96
68977;SHT31;56029;52.568;13.588;2023-08-31T14:37:57;18.72;69.26
68977;SHT31;56029;52.568;13.588;2023-08-31T14:40:23;18.62;69.65
68977;SHT31;56029;52.568;13.588;2023-08-31T14:42:49;18.25;70.76
68977;SHT31;56029;52.568;13.588;2023-08-31T14:45:14;18.39;72.22
68977;SHT31;56029;52.568;13.588;2023-08-31T14:47:40;18.32;71.50
68977;SHT31;56029;52.568;13.588;2023-08-31T14:50:07;18.11;69.81
68977;SHT31;56029;52.568;13.588;2023-08-31T14:52:33;17.97;69.97
68977;SHT31;56029;52.568;13.588;2023-08-31T14:54:59;17.87;70.26
68977;SHT31;56029;52.568;13.588;2023-08-31T14:57:28;17.60;70.38
68977;SHT31;56029;52.568;13.588;2023-08-31T14:59:56;16.87;72.82
68977;SHT31;56029;52.568;13.588;2023-08-31T15:02:22;16.34;74.46
68977;SHT31;56029;52.568;13.588;2023-08-31T15:04:48;15.75;76.01
68977;SHT31;56029;52.568;13.588;2023-08-31T15:07:16;15.59;77.03
68977;SHT31;56029;52.568;13.588;2023-08-31T15:09:42;15.54;77.48
68977;SHT31;56029;52.568;13.588;2023-08-31T15:12:08;15.59;77.84
68977;SHT31;56029;52.568;13.588;2023-08-31T15:14:33;15.47;76.76
68977;SHT31;56029;52.568;13.588;2023-08-31T15:17:02;15.26;77.41